createdAt,value
2023-06-25T00:00:48.499Z,19.52
2023-06-25T00:02:49.003Z,19.48
2023-06-25T00:04:49.315Z,19.41
2023-06-25T00:06:49.687Z,19.41
2023-06-25T00:08:50.072Z,19.39
2023-06-25T00:10:50.529Z,19.40
2023-06-25T00:12:51.037Z,19.48
2023-06-25T00:14:51.739Z,19.40
2023-06-25T00:16:52.150Z,19.45
2023-06-25T00:18:52.452Z,19.45
2023-06-25T00:20:52.869Z,19.40
2023-06-25T00:23:06.127Z,19.44
2023-06-25T00:24:59.167Z,19.40
2023-06-25T00:26:59.615Z,19.48
2023-06-25T00:29:00.013Z,19.49
2023-06-25T00:31:00.417Z,19.48
2023-06-25T00:33:00.852Z,19.41
2023-06-25T00:35:01.252Z,19.36
2023-06-25T00:37:01.673Z,19.33
2023-06-25T00:39:02.002Z,19.29
2023-06-25T00:41:02.397Z,19.27
2023-06-25T00:43:02.723Z,19.24
2023-06-25T00:45:03.089Z,19.22
2023-06-25T00:47:03.456Z,19.22
2023-06-25T00:49:03.768Z,19.16
2023-06-25T00:51:04.158Z,19.14
2023-06-25T00:53:04.503Z,19.07
2023-06-25T00:55:04.828Z,19.02
2023-06-25T00:57:05.188Z,19.02
2023-06-25T00:59:05.631Z,18.98
2023-06-25T01:01:05.997Z,18.95
2023-06-25T01:03:06.414Z,18.95
2023-06-25T01:05:06.853Z,18.98
2023-06-25T01:07:07.364Z,18.99
2023-06-25T01:09:07.799Z,18.96
2023-06-25T01:11:08.134Z,18.93
2023-06-25T01:13:08.390Z,18.95
2023-06-25T01:15:08.857Z,19.08
2023-06-25T01:17:09.237Z,19.14
2023-06-25T01:19:09.707Z,19.21
2023-06-25T01:21:10.053Z,19.14
2023-06-25T01:23:10.368Z,19.02
2023-06-25T01:25:10.800Z,18.95
2023-06-25T01:27:11.081Z,18.93
2023-06-25T01:29:11.456Z,18.93
2023-06-25T01:31:11.840Z,18.93
2023-06-25T01:33:12.109Z,18.93
2023-06-25T01:35:12.490Z,18.95
2023-06-25T01:37:12.781Z,18.89
2023-06-25T01:39:13.131Z,18.93
2023-06-25T01:41:13.598Z,18.98
2023-06-25T01:43:13.928Z,18.99
2023-06-25T01:45:14.326Z,19.00
2023-06-25T01:47:14.690Z,18.99
2023-06-25T01:49:30.351Z,18.92
2023-06-25T01:51:20.228Z,18.90
2023-06-25T01:53:20.589Z,18.86
2023-06-25T01:55:20.943Z,18.83
2023-06-25T01:57:21.261Z,18.81
2023-06-25T01:59:21.556Z,18.83
2023-06-25T02:01:21.895Z,18.84
2023-06-25T02:03:22.353Z,18.84
2023-06-25T02:05:22.779Z,18.81
2023-06-25T02:07:23.309Z,18.80
2023-06-25T02:09:23.681Z,18.75
2023-06-25T02:11:23.986Z,18.70
2023-06-25T02:13:24.331Z,18.65
2023-06-25T02:15:24.655Z,18.71
2023-06-25T02:17:24.996Z,18.62
2023-06-25T02:19:25.305Z,18.58
2023-06-25T02:21:25.708Z,18.44
2023-06-25T02:23:26.029Z,18.35
2023-06-25T02:25:26.345Z,18.33
2023-06-25T02:27:26.733Z,18.26
2023-06-25T02:29:27.207Z,18.19
2023-06-25T02:31:27.600Z,18.15
2023-06-25T02:33:28.087Z,18.07
2023-06-25T02:35:28.416Z,18.03
2023-06-25T02:37:28.706Z,17.98
2023-06-25T02:39:29.091Z,18.00
2023-06-25T02:41:29.420Z,18.08
2023-06-25T02:43:29.810Z,18.05
2023-06-25T02:45:30.166Z,18.03
2023-06-25T02:47:30.532Z,18.03
2023-06-25T02:49:30.948Z,18.05
2023-06-25T02:51:31.331Z,18.05
2023-06-25T02:53:31.649Z,18.04
2023-06-25T02:55:32.072Z,18.10
2023-06-25T02:57:32.505Z,18.13
2023-06-25T02:59:33.027Z,18.20
2023-06-25T03:01:33.409Z,18.26
2023-06-25T03:03:33.785Z,18.26
2023-06-25T03:05:34.340Z,18.25
2023-06-25T03:07:34.744Z,18.15
2023-06-25T03:09:35.063Z,18.08
2023-06-25T03:11:35.442Z,18.05
2023-06-25T03:13:35.760Z,18.08
2023-06-25T03:15:36.375Z,18.08
2023-06-25T03:17:36.881Z,18.03
2023-06-25T03:19:37.194Z,17.97
2023-06-25T03:21:37.511Z,17.94
2023-06-25T03:23:37.798Z,17.94
2023-06-25T03:25:38.380Z,17.98
2023-06-25T03:27:38.806Z,17.97
2023-06-25T03:29:39.191Z,17.94
2023-06-25T03:31:39.503Z,17.87
2023-06-25T03:33:39.859Z,17.86
2023-06-25T03:35:40.154Z,17.89
2023-06-25T03:37:40.542Z,17.97
2023-06-25T03:39:40.878Z,18.00
2023-06-25T03:41:41.175Z,17.94
2023-06-25T03:43:41.560Z,17.90
2023-06-25T03:45:41.877Z,17.87
2023-06-25T03:47:42.253Z,17.76
2023-06-25T03:49:42.653Z,17.59
2023-06-25T03:51:42.992Z,17.56
2023-06-25T03:53:43.282Z,17.45
2023-06-25T03:55:43.620Z,17.46
2023-06-25T03:57:44.057Z,17.39
2023-06-25T03:59:44.380Z,17.33
2023-06-25T04:01:44.767Z,17.36
2023-06-25T04:03:45.045Z,17.39
2023-06-25T04:05:45.328Z,17.38
2023-06-25T04:07:45.602Z,17.44
2023-06-25T04:09:45.917Z,17.48
2023-06-25T04:11:46.202Z,17.49
2023-06-25T04:13:46.457Z,17.59
2023-06-25T04:15:46.781Z,17.70
2023-06-25T04:17:47.062Z,17.76
2023-06-25T04:19:47.341Z,17.80
2023-06-25T04:21:47.630Z,17.87
2023-06-25T04:23:47.914Z,17.94
2023-06-25T04:25:48.254Z,18.01
2023-06-25T04:27:48.563Z,18.08
2023-06-25T04:29:48.859Z,18.08
2023-06-25T04:31:49.180Z,18.13
2023-06-25T04:33:49.431Z,18.23
2023-06-25T04:35:49.739Z,18.29
2023-06-25T04:37:50.009Z,18.33
2023-06-25T04:39:50.307Z,18.40
2023-06-25T04:41:50.645Z,18.47
2023-06-25T04:43:50.911Z,18.53
2023-06-25T04:45:51.258Z,18.62
2023-06-25T04:47:51.668Z,18.74
2023-06-25T04:49:51.946Z,18.89
2023-06-25T04:51:52.266Z,18.96
2023-06-25T04:53:52.525Z,19.04
2023-06-25T04:55:52.839Z,19.08
2023-06-25T04:57:53.208Z,19.15
2023-06-25T04:59:53.490Z,19.19
2023-06-25T05:01:53.912Z,19.27
2023-06-25T05:03:54.256Z,19.33
2023-06-25T05:05:54.552Z,19.34
2023-06-25T05:07:54.816Z,19.41
2023-06-25T05:09:55.197Z,19.47
2023-06-25T05:11:55.461Z,19.54
2023-06-25T05:13:55.789Z,19.56
2023-06-25T05:15:56.049Z,19.63
2023-06-25T05:17:56.431Z,19.69
2023-06-25T05:19:56.692Z,19.73
2023-06-25T05:21:56.972Z,19.76
2023-06-25T05:23:57.305Z,19.79
2023-06-25T05:25:57.580Z,19.88
2023-06-25T05:27:57.850Z,19.91
2023-06-25T05:29:58.213Z,19.94
2023-06-25T05:31:58.495Z,19.99
2023-06-25T05:33:58.812Z,20.04
2023-06-25T05:35:59.101Z,20.09
2023-06-25T05:37:59.361Z,20.10
2023-06-25T05:39:59.722Z,20.19
2023-06-25T05:41:59.994Z,20.29
2023-06-25T05:44:00.302Z,20.37
2023-06-25T05:46:00.608Z,20.44
2023-06-25T05:48:01.802Z,20.48
2023-06-25T05:50:02.168Z,20.56
2023-06-25T05:52:02.448Z,20.59
2023-06-25T05:54:02.721Z,20.66
2023-06-25T05:56:03.044Z,20.69
2023-06-25T05:58:03.310Z,20.77
2023-06-25T06:00:03.592Z,20.81
2023-06-25T06:02:03.990Z,20.90
2023-06-25T06:04:04.300Z,20.97
2023-06-25T06:06:04.600Z,21.03
2023-06-25T06:08:04.862Z,21.09
2023-06-25T06:10:05.239Z,21.21
2023-06-25T06:12:05.508Z,21.32
2023-06-25T06:14:05.840Z,21.37
2023-06-25T06:16:06.237Z,21.48
2023-06-25T06:18:06.594Z,21.58
2023-06-25T06:20:06.863Z,21.67
2023-06-25T06:22:07.275Z,21.73
2023-06-25T06:24:07.578Z,21.82
2023-06-25T06:26:07.847Z,21.95
2023-06-25T06:28:08.214Z,22.07
2023-06-25T06:30:08.494Z,22.15
2023-06-25T06:32:08.821Z,22.23
2023-06-25T06:34:09.125Z,22.35
2023-06-25T06:36:09.424Z,22.41
2023-06-25T06:38:09.849Z,22.51
2023-06-25T06:40:10.299Z,22.54
2023-06-25T06:42:10.620Z,22.70
2023-06-25T06:44:10.946Z,22.80
2023-06-25T06:46:11.317Z,22.81
2023-06-25T06:48:11.607Z,22.81
2023-06-25T06:50:11.946Z,22.90
2023-06-25T06:52:12.222Z,22.91
2023-06-25T06:54:12.553Z,23.00
2023-06-25T06:56:12.866Z,23.15
2023-06-25T06:58:13.155Z,23.20
2023-06-25T07:00:13.485Z,23.23
2023-06-25T07:02:13.775Z,23.34
2023-06-25T07:04:15.668Z,23.36
2023-06-25T07:06:17.613Z,23.46
2023-06-25T07:08:17.910Z,23.61
2023-06-25T07:10:18.259Z,23.74
2023-06-25T07:12:18.514Z,23.86
2023-06-25T07:14:18.830Z,23.93
2023-06-25T07:16:19.153Z,24.01
2023-06-25T07:18:19.448Z,24.13
2023-06-25T07:20:19.807Z,24.11
2023-06-25T07:22:20.120Z,24.14
2023-06-25T07:24:20.393Z,24.16
2023-06-25T07:26:20.749Z,24.14
2023-06-25T07:28:21.657Z,24.28
2023-06-25T07:30:22.017Z,24.35
2023-06-25T07:32:22.295Z,24.39
2023-06-25T07:34:22.602Z,24.53
2023-06-25T07:36:22.963Z,24.60
2023-06-25T07:38:23.262Z,24.66
2023-06-25T07:40:23.567Z,24.81
2023-06-25T07:42:23.874Z,24.89
2023-06-25T07:46:29.626Z,24.98
2023-06-25T07:48:30.010Z,25.07
2023-06-25T07:50:30.304Z,25.18
2023-06-25T07:52:30.609Z,25.33
2023-06-25T07:54:30.924Z,25.48
2023-06-25T07:56:31.718Z,25.58
2023-06-25T07:58:32.267Z,25.63
2023-06-25T08:00:32.500Z,25.72
2023-06-25T08:02:32.923Z,25.78
2023-06-25T08:04:33.345Z,25.85
2023-06-25T08:06:33.664Z,25.87
2023-06-25T08:08:33.996Z,25.88
2023-06-25T08:10:34.299Z,25.85
2023-06-25T08:12:34.599Z,25.83
2023-06-25T08:14:34.942Z,25.80
2023-06-25T08:16:35.399Z,25.90
2023-06-25T08:18:35.919Z,25.95
2023-06-25T08:20:36.294Z,25.99
2023-06-25T08:22:36.609Z,26.06
2023-06-25T08:24:36.916Z,26.15
2023-06-25T08:26:37.218Z,26.16
2023-06-25T08:28:37.531Z,26.21
2023-06-25T08:30:37.802Z,26.22
2023-06-25T08:32:38.194Z,26.25
2023-06-25T08:34:38.443Z,26.34
2023-06-25T08:36:38.782Z,26.48
2023-06-25T08:38:39.091Z,26.55
2023-06-25T08:40:39.401Z,26.59
2023-06-25T08:42:39.717Z,26.77
2023-06-25T08:44:40.093Z,26.92
2023-06-25T08:46:40.454Z,27.08
2023-06-25T08:48:40.729Z,27.15
2023-06-25T08:50:41.031Z,27.15
2023-06-25T08:52:41.316Z,27.12
2023-06-25T08:54:42.153Z,27.07
2023-06-25T08:56:42.414Z,27.14
2023-06-25T08:58:42.731Z,27.29
2023-06-25T09:00:43.044Z,27.30
2023-06-25T09:02:43.518Z,27.36
2023-06-25T09:04:43.883Z,27.42
2023-06-25T09:06:59.084Z,27.40
2023-06-25T09:08:49.383Z,27.47
2023-06-25T09:10:49.720Z,27.49
2023-06-25T09:12:50.001Z,27.52
2023-06-25T09:14:50.365Z,27.59
2023-06-25T09:16:50.652Z,27.70
2023-06-25T09:18:50.973Z,27.80
2023-06-25T09:20:53.093Z,28.07
2023-06-25T09:22:55.899Z,28.25
2023-06-25T09:24:56.232Z,28.38
2023-06-25T09:26:56.532Z,28.38
2023-06-25T09:28:56.862Z,28.35
2023-06-25T09:30:57.221Z,28.41
2023-06-25T09:32:57.717Z,28.59
2023-06-25T09:34:58.067Z,28.74
2023-06-25T09:36:58.361Z,28.78
2023-06-25T09:39:03.545Z,28.91
2023-06-25T09:41:03.841Z,29.05
2023-06-25T09:43:04.182Z,29.14
2023-06-25T09:45:05.216Z,29.13
2023-06-25T09:47:05.774Z,29.13
2023-06-25T09:49:06.054Z,29.13
2023-06-25T09:51:06.409Z,28.98
2023-06-25T09:53:06.741Z,28.93
2023-06-25T09:55:07.093Z,28.94
2023-06-25T09:57:07.336Z,28.98
2023-06-25T09:59:07.617Z,28.91
2023-06-25T10:01:07.964Z,29.02
2023-06-25T10:03:08.402Z,29.17
2023-06-25T10:05:13.428Z,29.34
2023-06-25T10:07:14.473Z,29.35
2023-06-25T10:09:14.813Z,29.38
2023-06-25T10:11:15.150Z,29.50
2023-06-25T10:13:15.444Z,29.63
2023-06-25T10:15:15.862Z,29.73
2023-06-25T10:17:16.193Z,29.81
2023-06-25T10:19:17.304Z,29.87
2023-06-25T10:21:17.560Z,30.08
2023-06-25T10:23:17.863Z,30.23
2023-06-25T10:25:18.263Z,30.25
2023-06-25T10:27:18.542Z,30.23
2023-06-25T10:29:18.944Z,30.25
2023-06-25T10:31:19.443Z,30.40
2023-06-25T10:33:19.844Z,30.59
2023-06-25T10:35:21.301Z,30.80
2023-06-25T10:37:21.565Z,30.68
2023-06-25T10:39:21.852Z,30.80
2023-06-25T10:41:26.772Z,30.90
2023-06-25T10:43:27.098Z,30.87
2023-06-25T10:45:27.434Z,30.91
2023-06-25T10:47:27.754Z,31.02
2023-06-25T10:49:28.171Z,31.07
2023-06-25T10:51:28.480Z,31.22
2023-06-25T10:53:28.767Z,31.18
2023-06-25T10:55:29.084Z,31.33
2023-06-25T10:57:29.407Z,31.43
2023-06-25T10:59:29.681Z,31.44
2023-06-25T11:01:30.001Z,31.51
2023-06-25T11:03:30.400Z,31.62
2023-06-25T11:05:30.691Z,31.55
2023-06-25T11:07:31.034Z,31.73
2023-06-25T11:09:31.312Z,31.84
2023-06-25T11:11:31.581Z,31.90
2023-06-25T11:13:31.916Z,31.97
2023-06-25T11:15:32.216Z,32.00
2023-06-25T11:17:32.539Z,32.08
2023-06-25T11:19:32.787Z,32.26
2023-06-25T11:21:33.083Z,32.31
2023-06-25T11:23:33.385Z,32.31
2023-06-25T11:25:33.851Z,32.37
2023-06-25T11:27:34.139Z,32.30
2023-06-25T11:29:34.486Z,32.36
2023-06-25T11:31:34.835Z,32.27
2023-06-25T11:33:35.181Z,32.08
2023-06-25T11:35:35.635Z,32.09
2023-06-25T11:37:36.058Z,32.19
2023-06-25T11:39:36.364Z,32.21
2023-06-25T11:41:36.652Z,32.40
2023-06-25T11:43:36.924Z,32.74
2023-06-25T11:45:37.556Z,32.96
2023-06-25T11:47:38.063Z,32.36
2023-06-25T11:49:38.371Z,32.14
2023-06-25T11:51:38.651Z,32.18
2023-06-25T11:53:38.953Z,32.34
2023-06-25T11:55:39.666Z,32.34
2023-06-25T11:57:40.240Z,32.63
2023-06-25T11:59:40.601Z,32.67
2023-06-25T12:01:40.839Z,32.51
2023-06-25T12:03:41.175Z,32.65
2023-06-25T12:05:41.764Z,33.12
2023-06-25T12:07:42.195Z,33.57
2023-06-25T12:09:42.478Z,33.83
2023-06-25T12:11:42.770Z,34.11
2023-06-25T12:13:43.018Z,34.30
2023-06-25T12:15:43.343Z,34.50
2023-06-25T12:17:43.749Z,34.64
2023-06-25T12:19:44.064Z,34.71
2023-06-25T12:21:44.346Z,34.86
2023-06-25T12:23:44.649Z,34.85
2023-06-25T12:25:44.917Z,34.83
2023-06-25T12:27:45.203Z,34.93
2023-06-25T12:29:45.479Z,35.00
2023-06-25T12:31:45.789Z,34.96
2023-06-25T12:33:46.023Z,35.00
2023-06-25T12:35:46.321Z,35.08
2023-06-25T12:37:46.602Z,35.22
2023-06-25T12:39:46.925Z,35.18
2023-06-25T12:41:47.192Z,35.22
2023-06-25T12:43:47.504Z,35.24
2023-06-25T12:45:50.337Z,35.04
2023-06-25T12:47:51.486Z,35.12
2023-06-25T12:49:51.772Z,35.23
2023-06-25T12:51:52.636Z,35.27
2023-06-25T12:53:53.134Z,35.44
2023-06-25T12:55:53.429Z,35.36
2023-06-25T12:57:53.692Z,35.33
2023-06-25T12:59:53.990Z,35.42
2023-06-25T13:01:54.323Z,35.64
2023-06-25T13:03:54.601Z,35.71
2023-06-25T13:05:54.857Z,35.64
2023-06-25T13:07:55.154Z,35.71
2023-06-25T13:09:55.478Z,36.02
2023-06-25T13:11:55.755Z,36.05
2023-06-25T13:13:56.188Z,36.04
2023-06-25T13:15:56.499Z,36.12
2023-06-25T13:17:56.770Z,36.21
2023-06-25T13:19:57.064Z,36.23
2023-06-25T13:22:02.257Z,35.97
2023-06-25T13:24:02.511Z,35.53
2023-06-25T13:26:02.809Z,34.92
2023-06-25T13:28:03.072Z,34.71
2023-06-25T13:30:03.341Z,34.95
2023-06-25T13:32:03.662Z,35.30
2023-06-25T13:34:03.946Z,35.55
2023-06-25T13:36:04.239Z,35.95
2023-06-25T13:38:04.562Z,36.12
2023-06-25T13:40:04.864Z,36.23
2023-06-25T13:42:05.171Z,35.68
2023-06-25T13:44:05.448Z,35.60
2023-06-25T13:46:06.299Z,35.80
2023-06-25T13:48:06.691Z,36.01
2023-06-25T13:50:06.954Z,36.40
2023-06-25T13:52:07.341Z,36.73
2023-06-25T13:54:07.649Z,36.89
2023-06-25T13:56:07.964Z,36.95
2023-06-25T13:58:08.996Z,37.06
2023-06-25T14:00:14.189Z,37.11
2023-06-25T14:02:15.367Z,37.30
2023-06-25T14:04:15.745Z,37.49
2023-06-25T14:06:16.113Z,37.44
2023-06-25T14:08:16.456Z,37.70
2023-06-25T14:10:16.738Z,37.49
2023-06-25T14:12:17.095Z,37.37
2023-06-25T14:14:17.433Z,37.21
2023-06-25T14:16:17.731Z,37.15
2023-06-25T14:18:18.135Z,37.29
2023-06-25T14:20:18.482Z,37.35
2023-06-25T14:22:18.869Z,36.92
2023-06-25T14:24:19.159Z,36.40
2023-06-25T14:26:21.394Z,36.36
2023-06-25T14:28:21.701Z,36.96
2023-06-25T14:30:26.963Z,37.65
2023-06-25T14:32:27.324Z,37.92
2023-06-25T14:34:27.738Z,38.24
2023-06-25T14:36:28.048Z,38.24
2023-06-25T14:38:29.355Z,38.26
2023-06-25T14:40:29.669Z,38.28
2023-06-25T14:42:29.982Z,38.19
2023-06-25T14:44:30.279Z,37.44
2023-06-25T14:46:30.706Z,37.13
2023-06-25T14:48:31.065Z,36.65
2023-06-25T14:50:31.361Z,36.40
2023-06-25T14:52:31.876Z,36.47
2023-06-25T14:54:32.259Z,36.46
2023-06-25T14:56:33.405Z,36.49
2023-06-25T14:58:33.878Z,36.58
2023-06-25T15:00:34.185Z,36.62
2023-06-25T15:02:34.750Z,36.43
2023-06-25T15:04:35.817Z,36.23
2023-06-25T15:06:36.751Z,36.17
2023-06-25T15:08:40.669Z,36.23
2023-06-25T15:10:41.337Z,36.18
2023-06-25T15:12:41.590Z,35.93
2023-06-25T15:14:44.507Z,35.73
2023-06-25T15:16:46.117Z,35.95
2023-06-25T15:18:46.389Z,36.31
2023-06-25T15:20:47.090Z,36.55
2023-06-25T15:22:47.337Z,36.35
2023-06-25T15:24:47.634Z,36.33
2023-06-25T15:26:47.991Z,36.27
2023-06-25T15:28:48.375Z,35.82
2023-06-25T15:30:48.665Z,35.53
2023-06-25T15:32:49.008Z,35.52
2023-06-25T15:34:49.463Z,35.78
2023-06-25T15:36:49.819Z,36.17
2023-06-25T15:38:50.150Z,36.59
2023-06-25T15:40:50.459Z,36.93
2023-06-25T15:53:33.620Z,38.87
2023-06-25T15:55:33.899Z,38.84
2023-06-25T15:57:34.249Z,39.21
2023-06-25T15:59:34.524Z,39.53
2023-06-25T16:01:34.837Z,39.37
2023-06-25T16:04:16.867Z,39.14
2023-06-25T16:06:17.202Z,39.72
2023-06-25T16:08:17.464Z,40.30
2023-06-25T16:10:17.782Z,40.43
2023-06-25T16:12:18.188Z,40.96
2023-06-25T16:14:18.493Z,41.50
2023-06-25T16:16:18.760Z,42.04
2023-06-25T16:18:19.051Z,42.32
2023-06-25T16:20:19.377Z,42.53
2023-06-25T16:22:19.641Z,42.63
2023-06-25T16:24:19.963Z,42.58
2023-06-25T16:26:20.225Z,42.62
2023-06-25T16:28:20.543Z,42.48
2023-06-25T16:36:04.901Z,0.00
2023-06-25T16:38:05.147Z,0.00
2023-06-25T16:40:05.357Z,0.00
2023-06-25T16:42:05.669Z,0.00
2023-06-25T16:44:05.900Z,0.00
2023-06-25T16:46:06.212Z,0.00
2023-06-25T16:48:06.527Z,0.00
2023-06-25T16:50:06.777Z,0.00
2023-06-25T16:52:07.018Z,0.00
2023-06-25T16:54:07.314Z,0.00
2023-06-25T16:56:07.577Z,0.00
2023-06-25T16:58:07.874Z,0.00
2023-06-25T17:00:08.123Z,0.00
2023-06-25T17:02:08.464Z,0.00
2023-06-25T17:04:08.753Z,0.00
2023-06-25T17:06:09.090Z,0.00
2023-06-25T17:08:09.325Z,0.00
2023-06-25T17:10:09.566Z,0.00
2023-06-25T17:12:09.870Z,0.00
2023-06-25T17:14:14.953Z,0.00
2023-06-25T17:16:15.221Z,0.00
2023-06-25T17:18:15.510Z,0.00
2023-06-25T17:20:15.788Z,0.00
2023-06-25T17:22:16.025Z,0.00
2023-06-25T17:24:16.343Z,0.00
2023-06-25T17:26:16.568Z,0.00
2023-06-25T17:28:16.818Z,0.00
2023-06-25T17:30:17.086Z,0.00
2023-06-25T17:32:17.445Z,0.00
2023-06-25T17:34:17.779Z,0.00
2023-06-25T17:36:18.030Z,0.00
2023-06-25T17:38:18.278Z,0.00
2023-06-25T17:40:18.573Z,0.00
2023-06-25T17:42:18.878Z,0.00
2023-06-25T17:44:19.192Z,0.00
2023-06-25T17:46:19.533Z,0.00
2023-06-25T17:48:19.948Z,0.00
2023-06-25T17:50:20.249Z,0.00
2023-06-25T17:52:20.561Z,0.00
2023-06-25T17:54:20.855Z,0.00
2023-06-25T17:56:21.902Z,0.00
2023-06-25T17:58:22.278Z,0.00
2023-06-25T18:00:23.552Z,0.00
2023-06-25T18:02:23.879Z,0.00
2023-06-25T18:04:24.955Z,0.00
2023-06-25T18:06:25.237Z,0.00
2023-06-25T18:08:25.779Z,0.00
2023-06-25T18:10:26.015Z,0.00
2023-06-25T18:12:26.301Z,0.00
2023-06-25T18:14:26.569Z,0.00
2023-06-25T18:16:26.941Z,0.00
2023-06-25T18:18:27.259Z,0.00
2023-06-25T18:20:27.584Z,0.00
2023-06-25T18:22:27.862Z,0.00
2023-06-25T18:24:28.178Z,0.00
2023-06-25T18:26:28.418Z,0.00
2023-06-25T18:28:28.683Z,0.00
2023-06-25T18:30:29.416Z,0.00
2023-06-25T18:32:29.706Z,0.00
2023-06-25T18:34:29.973Z,0.00
2023-06-25T18:36:30.277Z,0.00
2023-06-25T18:38:30.529Z,0.00
2023-06-25T18:40:30.895Z,0.00
2023-06-25T18:42:31.246Z,0.00
2023-06-25T18:44:31.535Z,0.00
2023-06-25T18:46:31.814Z,0.00
2023-06-25T18:48:32.137Z,0.00
2023-06-25T18:50:32.412Z,0.00
2023-06-25T18:52:32.741Z,0.00
2023-06-25T18:54:37.987Z,0.00
2023-06-25T18:56:38.303Z,0.00
2023-06-25T18:58:38.570Z,0.00
2023-06-25T19:00:39.235Z,0.00
2023-06-25T19:02:39.765Z,0.00
2023-06-25T19:04:40.142Z,0.00
2023-06-25T19:06:41.141Z,0.00
2023-06-25T19:08:41.627Z,0.00
2023-06-25T19:10:42.019Z,0.00
2023-06-25T19:12:42.227Z,0.00
2023-06-25T19:14:42.505Z,0.00
2023-06-25T19:16:42.843Z,0.00
2023-06-25T19:18:43.094Z,0.00
2023-06-25T19:20:43.380Z,0.00
2023-06-25T19:22:57.005Z,0.00
2023-06-25T19:24:49.605Z,0.00
2023-06-25T19:26:49.876Z,0.00
2023-06-25T19:28:50.181Z,0.00
2023-06-25T19:30:50.528Z,0.00
2023-06-25T19:32:51.496Z,0.00
2023-06-25T19:34:52.881Z,0.00
2023-06-25T19:36:53.158Z,0.00
2023-06-25T19:38:53.452Z,0.00
2023-06-25T19:40:53.754Z,0.00
2023-06-25T19:42:53.972Z,0.00
2023-06-25T19:44:54.294Z,0.00
2023-06-25T19:46:54.580Z,0.00
2023-06-25T19:48:54.904Z,0.00
2023-06-25T19:50:55.143Z,0.00
2023-06-25T19:52:55.385Z,0.00
2023-06-25T19:54:55.689Z,0.00
2023-06-25T19:56:58.491Z,0.00
2023-06-25T19:59:42.973Z,0.00
2023-06-25T21:23:06.929Z,22.33
2023-06-25T21:25:07.207Z,22.28
2023-06-25T21:28:04.265Z,22.22
2023-06-25T21:31:19.451Z,22.07
2023-06-25T21:34:09.555Z,21.95
2023-06-25T21:36:53.182Z,21.85
2023-06-25T21:38:54.730Z,21.79
2023-06-25T21:41:39.238Z,21.72
2023-06-25T21:44:33.622Z,21.69
2023-06-25T21:46:34.445Z,21.66
2023-06-25T21:49:20.128Z,21.66
2023-06-25T21:51:21.076Z,21.64
2023-06-25T21:53:21.453Z,21.60
2023-06-25T21:55:21.983Z,21.57
2023-06-25T21:58:09.227Z,21.57
2023-06-25T22:00:09.719Z,21.54
2023-06-25T22:02:11.413Z,21.54
2023-06-25T22:05:05.949Z,21.54
2023-06-25T22:07:07.401Z,21.54
2023-06-25T22:09:55.791Z,21.52
2023-06-25T22:11:56.622Z,21.50
2023-06-25T22:14:43.447Z,21.45
2023-06-25T22:17:30.975Z,21.50
2023-06-25T22:19:31.687Z,21.43
2023-06-25T22:21:32.152Z,21.43
2023-06-25T22:23:32.894Z,21.43
2023-06-25T22:26:19.310Z,21.52
2023-06-25T22:28:19.977Z,21.57
2023-06-25T22:31:10.111Z,21.60
2023-06-25T22:33:12.654Z,21.66
2023-06-25T22:36:42.818Z,21.62
2023-06-25T22:39:32.942Z,21.48
2023-06-25T22:42:25.738Z,21.43
2023-06-25T22:45:22.699Z,21.48
2023-06-25T22:48:10.616Z,21.48
2023-06-25T22:51:02.012Z,21.40
2023-06-25T22:53:03.836Z,21.35
2023-06-25T22:55:10.480Z,21.30
2023-06-25T22:58:01.853Z,21.29
2023-06-25T23:00:55.618Z,21.17
2023-06-25T23:03:40.808Z,20.97
2023-06-25T23:06:32.067Z,20.84
2023-06-25T23:09:19.709Z,20.80
2023-06-25T23:12:07.605Z,20.70
2023-06-25T23:15:05.625Z,20.66
2023-06-25T23:17:53.949Z,20.60
2023-06-25T23:20:41.394Z,20.60
2023-06-25T23:22:43.011Z,20.50
2023-06-25T23:25:30.778Z,20.31
2023-06-25T23:28:33.403Z,20.29
2023-06-25T23:31:19.404Z,20.21
2023-06-25T23:33:26.383Z,20.21
2023-06-25T23:35:30.282Z,20.16
2023-06-25T23:37:37.391Z,20.19
2023-06-25T23:40:33.264Z,20.13
2023-06-25T23:43:23.244Z,20.10
2023-06-25T23:46:13.332Z,20.02
2023-06-25T23:48:59.038Z,19.96
2023-06-25T23:52:15.130Z,19.91
2023-06-25T23:55:05.284Z,19.92
2023-06-25T23:57:54.471Z,19.94
